createdAt,value
2019-03-01T00:01:03.717Z,4.30
2019-03-01T00:03:31.247Z,4.23
2019-03-01T00:06:13.279Z,3.53
2019-03-01T00:08:44.709Z,6.53
2019-03-01T00:11:19.091Z,7.50
2019-03-01T00:14:04.083Z,11.50
2019-03-01T00:16:51.720Z,7.87
2019-03-01T00:19:30.807Z,4.50
2019-03-01T00:22:09.433Z,3.10
2019-03-01T00:24:39.283Z,3.97
2019-03-01T00:27:18.080Z,4.63
2019-03-01T00:29:53.936Z,2.00
2019-03-01T00:32:38.983Z,7.23
2019-03-01T00:35:13.546Z,11.90
2019-03-01T00:37:43.431Z,6.70
2019-03-01T00:40:21.956Z,6.00
2019-03-01T00:43:00.664Z,6.47
2019-03-01T00:45:27.098Z,9.27
2019-03-01T00:47:53.519Z,5.90
2019-03-01T00:50:19.602Z,3.30
2019-03-01T00:52:45.755Z,4.37
2019-03-01T00:55:11.799Z,3.17
2019-03-01T00:57:37.855Z,3.57
2019-03-01T01:00:07.719Z,5.27
2019-03-01T01:02:33.800Z,5.90
2019-03-01T01:04:59.912Z,7.37
2019-03-01T01:07:25.971Z,5.93
2019-03-01T01:09:52.062Z,8.33
2019-03-01T01:12:18.119Z,8.07
2019-03-01T01:14:44.273Z,7.17
2019-03-01T01:17:10.339Z,6.90
2019-03-01T01:19:36.398Z,2.27
2019-03-01T01:22:02.447Z,3.10
2019-03-01T01:24:28.516Z,0.73
2019-03-01T01:26:54.567Z,1.90
2019-03-01T01:29:20.992Z,3.90
2019-03-01T01:31:47.432Z,2.73
2019-03-01T01:34:13.856Z,7.73
2019-03-01T01:36:39.959Z,8.30
2019-03-01T01:39:06.903Z,10.07
2019-03-01T01:41:33.336Z,7.67
2019-03-01T01:43:59.388Z,7.27
2019-03-01T01:46:25.464Z,5.63
2019-03-01T01:48:51.576Z,2.93
2019-03-01T01:51:17.731Z,3.63
2019-03-01T01:53:44.267Z,11.60
2019-03-01T01:56:10.327Z,4.03
2019-03-01T01:58:36.383Z,3.55
2019-03-01T02:01:02.856Z,1.60
2019-03-01T02:03:29.224Z,6.00
2019-03-01T02:05:55.367Z,4.50
2019-03-01T02:08:21.425Z,5.63
2019-03-01T02:10:47.859Z,6.67
2019-03-01T02:13:13.915Z,9.90
2019-03-01T02:15:40.007Z,8.50
2019-03-01T02:18:06.438Z,8.80
2019-03-01T02:20:32.905Z,4.37
2019-03-01T02:22:58.956Z,2.27
2019-03-01T02:25:25.003Z,4.63
2019-03-01T02:27:51.069Z,1.17
2019-03-01T02:30:18.987Z,2.03
2019-03-01T02:32:45.095Z,1.70
2019-03-01T02:35:12.642Z,13.15
2019-03-01T02:37:39.273Z,12.45
2019-03-01T02:40:12.459Z,12.70
2019-03-01T02:42:39.049Z,9.53
2019-03-01T02:45:07.400Z,5.87
2019-03-01T02:47:34.366Z,8.30
2019-03-01T02:50:00.613Z,4.30
2019-03-01T02:52:26.763Z,5.33
2019-03-01T02:54:52.904Z,2.05
2019-03-01T02:57:19.061Z,2.53
2019-03-01T02:59:45.130Z,3.40
2019-03-01T03:02:11.346Z,2.37
2019-03-01T03:04:37.462Z,5.27
2019-03-01T03:07:05.594Z,10.10
2019-03-01T03:09:32.152Z,7.70
2019-03-01T03:11:58.992Z,13.40
2019-03-01T03:14:25.175Z,8.07
2019-03-01T03:16:51.590Z,11.90
2019-03-01T03:19:17.715Z,3.93
2019-03-01T03:21:43.856Z,2.00
2019-03-01T03:24:12.688Z,6.97
2019-03-01T03:26:40.474Z,1.05
2019-03-01T03:29:07.711Z,1.63
2019-03-01T03:31:34.270Z,3.58
2019-03-01T03:34:01.160Z,6.40
2019-03-01T03:36:27.441Z,10.95
2019-03-01T03:38:54.118Z,2.60
2019-03-01T03:41:21.030Z,9.73
2019-03-01T03:43:48.114Z,7.78
2019-03-01T03:46:15.720Z,5.05
2019-03-01T03:48:42.424Z,9.33
2019-03-01T03:51:11.677Z,2.27
2019-03-01T03:53:40.540Z,2.15
2019-03-01T03:56:09.123Z,2.60
2019-03-01T03:58:35.845Z,4.15
2019-03-01T04:01:02.835Z,2.37
2019-03-01T04:03:29.534Z,3.95
2019-03-01T04:06:00.111Z,8.60
2019-03-01T04:08:29.979Z,47.50
2019-03-01T04:10:58.208Z,44.10
2019-03-01T04:13:27.657Z,44.00
2019-03-01T04:16:00.038Z,41.40
2019-03-01T04:18:27.302Z,43.23
2019-03-01T04:20:56.665Z,33.73
2019-03-01T04:23:24.956Z,37.57
2019-03-01T04:25:53.346Z,37.17
2019-03-01T04:28:20.056Z,36.77
2019-03-01T04:30:46.555Z,36.00
2019-03-01T04:33:15.918Z,38.40
2019-03-01T04:35:42.504Z,44.40
2019-03-01T04:38:08.790Z,48.23
2019-03-01T04:40:39.726Z,49.17
2019-03-01T04:43:05.743Z,41.67
2019-03-01T04:45:31.834Z,41.90
2019-03-01T04:47:57.904Z,41.37
2019-03-01T04:50:23.971Z,36.67
2019-03-01T04:52:50.028Z,38.93
2019-03-01T04:55:18.475Z,43.20
2019-03-01T04:57:44.531Z,37.40
2019-03-01T05:00:13.196Z,37.87
2019-03-01T05:02:39.252Z,36.27
2019-03-01T05:05:05.456Z,45.10
2019-03-01T05:07:32.367Z,42.33
2019-03-01T05:09:58.420Z,41.13
2019-03-01T05:12:24.519Z,40.67
2019-03-01T05:14:50.699Z,36.83
2019-03-01T05:17:16.887Z,37.90
2019-03-01T05:19:43.043Z,36.17
2019-03-01T05:22:09.099Z,37.97
2019-03-01T05:24:35.163Z,35.87
2019-03-01T05:27:01.237Z,38.27
2019-03-01T05:29:27.488Z,40.37
2019-03-01T05:31:53.539Z,37.37
2019-03-01T05:34:19.611Z,40.73
2019-03-01T05:36:45.671Z,44.10
2019-03-01T05:39:11.719Z,41.97
2019-03-01T05:41:37.783Z,41.03
2019-03-01T05:44:03.840Z,41.53
2019-03-01T05:46:29.919Z,38.20
2019-03-01T05:48:57.141Z,38.20
2019-03-01T05:51:23.254Z,37.57
2019-03-01T05:53:49.311Z,40.13
2019-03-01T05:56:15.367Z,37.93
2019-03-01T05:58:41.471Z,37.23
2019-03-01T06:01:11.335Z,43.37
2019-03-01T06:03:53.011Z,43.73
2019-03-01T06:06:39.680Z,42.70
2019-03-01T06:09:18.275Z,48.77
2019-03-01T06:11:51.143Z,51.37
2019-03-01T06:14:21.124Z,41.07
2019-03-01T06:16:54.006Z,36.93
2019-03-01T06:19:35.680Z,34.90
2019-03-01T06:22:27.128Z,36.47
2019-03-01T06:25:23.280Z,31.83
2019-03-01T06:27:53.131Z,38.43
2019-03-01T06:30:24.623Z,39.17
2019-03-01T06:33:00.263Z,30.77
2019-03-01T06:35:36.047Z,38.53
2019-03-01T06:38:31.227Z,40.23
2019-03-01T06:41:26.513Z,43.03
2019-03-01T06:44:19.577Z,38.30
2019-03-01T06:47:11.240Z,38.83
2019-03-01T06:49:57.602Z,23.90
2019-03-01T06:52:23.710Z,36.07
2019-03-01T06:54:49.971Z,36.53
2019-03-01T06:57:16.075Z,39.90
2019-03-01T06:59:42.152Z,42.43
2019-03-01T07:02:10.132Z,36.30
2019-03-01T07:04:36.184Z,38.87
2019-03-01T07:07:02.264Z,42.13
2019-03-01T07:09:28.337Z,47.33
2019-03-01T07:11:54.378Z,41.20
2019-03-01T07:14:20.437Z,39.90
2019-03-01T07:16:46.735Z,40.87
2019-03-01T07:19:12.799Z,40.70
2019-03-01T07:21:38.909Z,41.00
2019-03-01T07:24:05.043Z,37.10
2019-03-01T07:26:31.259Z,38.07
2019-03-01T07:28:57.312Z,37.67
2019-03-01T07:31:23.359Z,37.50
2019-03-01T07:33:49.415Z,45.33
2019-03-01T07:36:15.468Z,40.53
2019-03-01T07:38:41.527Z,40.43
2019-03-01T07:41:07.664Z,41.63
2019-03-01T07:43:33.744Z,42.77
2019-03-01T07:45:59.815Z,37.10
2019-03-01T07:48:25.884Z,39.30
2019-03-01T07:50:52.458Z,35.43
2019-03-01T07:53:19.925Z,39.87
2019-03-01T07:55:46.692Z,37.83
2019-03-01T07:58:13.079Z,39.43
2019-03-01T08:00:39.232Z,37.50
2019-03-01T08:03:05.412Z,36.27
2019-03-01T08:05:31.492Z,39.90
2019-03-01T08:08:02.573Z,40.37
2019-03-01T08:10:25.511Z,39.00
2019-03-01T08:12:51.575Z,41.13
2019-03-01T08:15:17.650Z,38.90
2019-03-01T08:17:43.743Z,37.57
2019-03-01T08:20:12.861Z,37.47
2019-03-01T08:22:48.089Z,40.30
2019-03-01T08:25:08.879Z,37.90
2019-03-01T08:27:35.039Z,36.57
2019-03-01T08:30:01.103Z,41.67
2019-03-01T08:32:27.380Z,38.00
2019-03-01T08:34:55.138Z,39.37
2019-03-01T08:37:21.194Z,39.00
2019-03-01T08:39:49.591Z,40.73
2019-03-01T08:42:15.248Z,41.17
2019-03-01T08:44:41.305Z,40.63
2019-03-01T08:47:07.356Z,40.97
2019-03-01T08:49:33.424Z,36.40
2019-03-01T08:52:01.412Z,38.40
2019-03-01T08:54:27.646Z,36.97
2019-03-01T08:56:53.861Z,38.33
2019-03-01T08:59:19.925Z,36.83
2019-03-01T09:01:45.995Z,36.63
2019-03-01T09:04:16.991Z,40.73
2019-03-01T09:06:41.814Z,40.83
2019-03-01T09:09:08.764Z,41.33
2019-03-01T09:11:35.039Z,42.83
2019-03-01T09:14:01.104Z,45.00
2019-03-01T09:16:27.168Z,44.43
2019-03-01T09:18:53.246Z,38.47
2019-03-01T09:21:19.301Z,39.17
2019-03-01T09:23:47.869Z,44.17
2019-03-01T09:26:16.558Z,38.37
2019-03-01T09:28:41.294Z,40.07
2019-03-01T09:31:07.545Z,39.10
2019-03-01T09:33:33.744Z,39.23
2019-03-01T09:36:01.700Z,41.97
2019-03-01T09:38:27.786Z,42.53
2019-03-01T09:40:54.611Z,44.77
2019-03-01T09:43:21.020Z,40.87
2019-03-01T09:45:48.641Z,40.50
2019-03-01T09:48:15.152Z,42.90
2019-03-01T09:50:41.201Z,38.83
2019-03-01T09:53:07.379Z,37.23
2019-03-01T09:55:34.768Z,38.07
2019-03-01T09:58:01.653Z,37.93
2019-03-01T10:00:37.553Z,38.77
2019-03-01T10:03:03.728Z,39.93
2019-03-01T10:05:29.785Z,42.00
2019-03-01T10:07:55.856Z,41.00
2019-03-01T10:10:24.663Z,44.07
2019-03-01T10:12:50.808Z,43.47
2019-03-01T10:15:16.861Z,43.03
2019-03-01T10:17:42.935Z,42.83
2019-03-01T10:20:11.401Z,37.33
2019-03-01T10:22:37.457Z,38.27
2019-03-01T10:25:06.639Z,38.73
2019-03-01T10:27:32.824Z,38.73
2019-03-01T10:30:00.021Z,39.63
2019-03-01T10:32:26.159Z,42.73
2019-03-01T10:34:52.251Z,45.80
2019-03-01T10:37:18.441Z,41.73
2019-03-01T10:39:44.517Z,42.47
2019-03-01T10:42:10.571Z,42.80
2019-03-01T10:44:36.645Z,42.83
2019-03-01T10:47:03.009Z,42.20
2019-03-01T10:49:29.068Z,38.87
2019-03-01T10:51:55.151Z,37.33
2019-03-01T10:54:21.216Z,39.23
2019-03-01T10:56:47.287Z,38.07
2019-03-01T10:59:13.350Z,38.50
2019-03-01T11:01:39.504Z,39.57
2019-03-01T11:04:05.566Z,44.23
2019-03-01T11:06:31.644Z,42.50
2019-03-01T11:08:57.693Z,41.47
2019-03-01T11:11:23.747Z,41.53
2019-03-01T11:13:49.816Z,45.33
2019-03-01T11:16:15.875Z,38.83
2019-03-01T11:18:41.939Z,38.97
2019-03-01T11:21:08.048Z,36.17
2019-03-01T11:23:34.095Z,40.70
2019-03-01T11:26:00.196Z,38.33
2019-03-01T11:28:26.271Z,38.53
2019-03-01T11:30:52.438Z,36.37
2019-03-01T11:33:18.599Z,39.20
2019-03-01T11:35:44.675Z,42.70
2019-03-01T11:38:10.740Z,43.13
2019-03-01T11:40:38.177Z,47.23
2019-03-01T11:43:04.739Z,41.80
2019-03-01T11:45:31.005Z,42.83
2019-03-01T11:47:57.069Z,40.13
2019-03-01T11:50:23.640Z,38.43
2019-03-01T11:52:49.714Z,37.43
2019-03-01T11:55:15.980Z,45.20
2019-03-01T11:57:42.072Z,37.17
2019-03-01T12:00:12.615Z,38.57
2019-03-01T12:02:38.727Z,38.23
2019-03-01T12:05:08.193Z,48.63
2019-03-01T12:07:34.279Z,40.40
2019-03-01T12:10:00.336Z,47.93
2019-03-01T12:12:26.625Z,45.83
2019-03-01T12:14:52.939Z,39.67
2019-03-01T12:17:19.019Z,40.40
2019-03-01T12:19:45.174Z,36.63
2019-03-01T12:22:17.119Z,35.50
2019-03-01T12:24:40.222Z,36.60
2019-03-01T12:27:06.504Z,36.77
2019-03-01T12:29:32.587Z,35.37
2019-03-01T12:31:58.687Z,38.40
2019-03-01T12:34:24.748Z,39.33
2019-03-01T12:36:50.816Z,41.20
2019-03-01T12:39:17.023Z,41.17
2019-03-01T12:41:43.079Z,41.40
2019-03-01T12:44:09.140Z,44.50
2019-03-01T12:46:35.191Z,42.83
2019-03-01T12:49:01.317Z,38.53
2019-03-01T12:51:27.433Z,36.07
2019-03-01T12:53:53.583Z,41.03
2019-03-01T12:56:19.667Z,38.73
2019-03-01T12:58:45.823Z,38.67
2019-03-01T13:01:11.896Z,36.80
2019-03-01T13:03:40.653Z,45.77
2019-03-01T13:06:05.958Z,43.80
2019-03-01T13:08:32.104Z,43.13
2019-03-01T13:10:58.177Z,40.50
2019-03-01T13:13:24.453Z,42.23
2019-03-01T13:15:52.296Z,50.63
2019-03-01T13:18:18.612Z,44.30
2019-03-01T13:20:44.895Z,37.37
2019-03-01T13:23:10.949Z,41.23
2019-03-01T13:25:37.121Z,38.67
2019-03-01T13:28:03.195Z,43.00
2019-03-01T13:30:32.646Z,41.63
2019-03-01T13:32:58.933Z,41.97
2019-03-01T13:35:25.992Z,43.23
2019-03-01T13:37:55.525Z,45.43
2019-03-01T13:40:24.395Z,47.90
2019-03-01T13:42:50.702Z,47.80
2019-03-01T13:45:21.599Z,45.13
2019-03-01T13:47:47.648Z,43.07
2019-03-01T13:50:19.195Z,42.53
2019-03-01T13:52:45.283Z,39.07
2019-03-01T13:55:14.734Z,49.33
2019-03-01T13:57:40.635Z,46.23
2019-03-01T14:00:12.936Z,38.63
2019-03-01T14:02:39.072Z,42.13
2019-03-01T14:05:07.175Z,42.60
2019-03-01T14:07:33.227Z,41.57
2019-03-01T14:10:00.767Z,41.97
2019-03-01T14:12:27.243Z,42.87
2019-03-01T14:14:53.295Z,40.53
2019-03-01T14:17:21.172Z,45.93
2019-03-01T14:19:47.483Z,37.40
2019-03-01T14:22:14.031Z,37.53
2019-03-01T14:24:40.316Z,42.77
2019-03-01T14:27:06.372Z,42.23
2019-03-01T14:29:32.420Z,37.10
2019-03-01T14:31:58.472Z,42.30
2019-03-01T14:34:24.636Z,41.40
2019-03-01T14:36:50.771Z,40.47
2019-03-01T14:39:16.981Z,43.00
2019-03-01T14:41:43.132Z,43.57
2019-03-01T14:44:09.190Z,40.10
2019-03-01T14:46:35.247Z,40.80
2019-03-01T14:49:01.299Z,38.00
2019-03-01T14:51:27.390Z,38.57
2019-03-01T14:53:53.536Z,41.63
2019-03-01T14:56:23.291Z,38.13
2019-03-01T14:59:08.056Z,36.80
2019-03-01T15:01:49.803Z,41.37
2019-03-01T15:04:16.208Z,43.27
2019-03-01T15:06:42.556Z,48.80
2019-03-01T15:09:08.784Z,42.13
2019-03-01T15:11:34.844Z,43.03
2019-03-01T15:14:01.007Z,51.87
2019-03-01T15:16:27.100Z,43.10
2019-03-01T15:18:53.167Z,40.67
2019-03-01T15:21:19.267Z,45.77
2019-03-01T15:23:45.371Z,42.30
2019-03-01T15:26:11.539Z,46.20
2019-03-01T15:28:43.303Z,39.50
2019-03-01T15:31:09.361Z,40.67
2019-03-01T15:33:35.424Z,47.80
2019-03-01T15:36:01.503Z,39.83
2019-03-01T15:38:28.876Z,46.67
2019-03-01T15:40:55.139Z,42.77
2019-03-01T15:43:21.207Z,42.07
2019-03-01T15:45:47.348Z,43.07
2019-03-01T15:48:18.046Z,43.37
2019-03-01T15:50:44.192Z,39.57
2019-03-01T15:53:10.255Z,38.20
2019-03-01T15:55:36.312Z,39.53
2019-03-01T15:58:02.379Z,39.00
2019-03-01T16:00:29.441Z,39.37
2019-03-01T16:02:56.520Z,38.87
2019-03-01T16:05:22.661Z,42.47
2019-03-01T16:07:48.807Z,45.43
2019-03-01T16:10:18.988Z,44.67
2019-03-01T16:12:45.048Z,40.73
2019-03-01T16:15:15.027Z,47.47
2019-03-01T16:17:41.096Z,42.90
2019-03-01T16:20:09.871Z,43.07
2019-03-01T16:22:35.941Z,38.80
2019-03-01T16:25:04.514Z,46.23
2019-03-01T16:27:30.688Z,38.37
2019-03-01T16:29:56.829Z,39.03
2019-03-01T16:32:22.892Z,47.10
2019-03-01T16:34:48.990Z,42.73
2019-03-01T16:37:15.257Z,42.43
2019-03-01T16:39:41.332Z,42.43
2019-03-01T16:42:07.429Z,46.83
2019-03-01T16:44:33.555Z,42.30
2019-03-01T16:46:59.628Z,44.30
2019-03-01T16:49:27.182Z,40.97
2019-03-01T16:51:53.996Z,40.07
2019-03-01T16:54:20.897Z,44.97
2019-03-01T16:56:46.955Z,41.37
2019-03-01T16:59:13.004Z,42.50
2019-03-01T17:01:40.646Z,41.93
2019-03-01T17:04:06.932Z,48.17
2019-03-01T17:06:33.013Z,45.20
2019-03-01T17:08:59.172Z,42.97
2019-03-01T17:11:25.231Z,47.60
2019-03-01T17:13:51.341Z,50.40
2019-03-01T17:16:20.511Z,46.63
2019-03-01T17:18:47.756Z,42.47
2019-03-01T17:21:15.627Z,44.60
2019-03-01T17:23:41.355Z,50.13
2019-03-01T17:26:07.512Z,43.77
2019-03-01T17:28:33.574Z,50.47
2019-03-01T17:30:59.632Z,44.43
2019-03-01T17:33:25.693Z,47.47
2019-03-01T17:35:51.739Z,46.77
2019-03-01T17:38:17.907Z,44.60
2019-03-01T17:40:43.973Z,43.27
2019-03-01T17:43:10.020Z,42.40
2019-03-01T17:45:36.083Z,47.47
2019-03-01T17:48:02.135Z,48.60
2019-03-01T17:50:28.231Z,40.30
2019-03-01T17:52:54.283Z,45.60
2019-03-01T17:55:24.567Z,43.97
2019-03-01T17:57:51.067Z,46.43
2019-03-01T18:00:26.431Z,38.60
2019-03-01T18:02:53.318Z,42.83
2019-03-01T18:05:19.580Z,48.90
2019-03-01T18:07:45.663Z,45.63
2019-03-01T18:10:13.461Z,44.00
2019-03-01T18:12:39.598Z,44.23
2019-03-01T18:15:12.400Z,43.03
2019-03-01T18:17:39.223Z,41.73
2019-03-01T18:20:08.148Z,38.47
2019-03-01T18:22:34.227Z,39.57
2019-03-01T18:25:00.280Z,39.10
2019-03-01T18:27:26.332Z,38.53
2019-03-01T18:29:52.396Z,38.20
2019-03-01T18:32:18.495Z,37.93
2019-03-01T18:34:44.567Z,41.20
2019-03-01T18:37:19.177Z,42.53
2019-03-01T18:39:41.146Z,45.40
2019-03-01T18:42:06.739Z,42.87
2019-03-01T18:44:32.797Z,42.60
2019-03-01T18:46:58.857Z,41.13
2019-03-01T18:49:24.927Z,40.17
2019-03-01T18:51:50.980Z,39.03
2019-03-01T18:54:17.039Z,38.97
2019-03-01T18:56:43.100Z,39.67
2019-03-01T18:59:09.151Z,39.63
2019-03-01T19:01:35.220Z,35.67
2019-03-01T19:04:01.271Z,39.73
2019-03-01T19:06:29.249Z,38.80
2019-03-01T19:08:55.307Z,43.87
2019-03-01T19:11:21.376Z,41.10
2019-03-01T19:13:47.431Z,44.73
2019-03-01T19:16:13.591Z,40.87
2019-03-01T19:18:39.682Z,40.20
2019-03-01T19:21:05.838Z,39.93
2019-03-01T19:23:32.437Z,41.97
2019-03-01T19:26:01.738Z,38.80
2019-03-01T19:28:27.687Z,39.17
2019-03-01T19:30:53.812Z,37.87
2019-03-01T19:33:19.896Z,36.93
2019-03-01T19:35:45.966Z,42.47
2019-03-01T19:38:12.057Z,44.97
2019-03-01T19:40:38.107Z,43.07
2019-03-01T19:43:06.946Z,43.33
2019-03-01T19:45:32.120Z,42.40
2019-03-01T19:48:02.053Z,42.00
2019-03-01T19:50:27.647Z,41.17
2019-03-01T19:52:53.695Z,37.23
2019-03-01T19:55:19.769Z,37.87
2019-03-01T19:57:45.843Z,42.07
2019-03-01T20:00:18.628Z,37.60
2019-03-01T20:02:44.765Z,41.60
2019-03-01T20:05:15.411Z,42.80
2019-03-01T20:07:41.572Z,46.03
2019-03-01T20:10:11.667Z,45.30
2019-03-01T20:12:40.516Z,41.27
2019-03-01T20:15:10.616Z,42.80
2019-03-01T20:17:44.056Z,43.70
2019-03-01T20:20:08.367Z,37.20
2019-03-01T20:22:34.419Z,39.80
2019-03-01T20:25:00.490Z,39.13
2019-03-01T20:27:26.543Z,38.13
2019-03-01T20:29:53.419Z,40.93
2019-03-01T20:32:19.679Z,41.13
2019-03-01T20:34:45.752Z,42.20
2019-03-01T20:37:11.802Z,44.43
2019-03-01T20:39:37.869Z,42.33
2019-03-01T20:42:03.927Z,45.07
2019-03-01T20:44:30.127Z,43.97
2019-03-01T20:46:56.196Z,44.70
2019-03-01T20:49:22.251Z,38.30
2019-03-01T20:51:48.294Z,41.47
2019-03-01T20:54:14.437Z,38.13
2019-03-01T20:56:40.491Z,39.43
2019-03-01T20:59:06.586Z,38.03
2019-03-01T21:01:33.791Z,41.27
2019-03-01T21:04:01.544Z,43.00
2019-03-01T21:06:28.665Z,44.60
2019-03-01T21:08:54.719Z,46.33
2019-03-01T21:11:25.328Z,43.43
2019-03-01T21:13:49.808Z,47.77
2019-03-01T21:16:15.873Z,42.80
2019-03-01T21:18:41.936Z,39.77
2019-03-01T21:21:07.995Z,40.40
2019-03-01T21:23:34.791Z,45.93
2019-03-01T21:26:00.955Z,37.73
2019-03-01T21:28:26.999Z,37.33
2019-03-01T21:30:55.687Z,39.33
2019-03-01T21:33:24.033Z,38.30
2019-03-01T21:35:51.148Z,43.93
2019-03-01T21:38:17.037Z,40.73
2019-03-01T21:40:43.100Z,42.47
2019-03-01T21:43:09.162Z,44.27
2019-03-01T21:45:35.215Z,43.00
2019-03-01T21:48:01.323Z,44.03
2019-03-01T21:50:27.486Z,40.33
2019-03-01T21:52:53.535Z,38.63
2019-03-01T21:55:24.824Z,37.57
2019-03-01T21:57:52.135Z,37.70
2019-03-01T22:00:28.951Z,39.67
2019-03-01T22:02:52.783Z,40.30
2019-03-01T22:05:19.563Z,45.50
2019-03-01T22:07:45.676Z,44.07
2019-03-01T22:10:13.236Z,40.73
2019-03-01T22:12:39.312Z,44.00
2019-03-01T22:15:25.830Z,42.43
2019-03-01T22:17:52.915Z,39.67
2019-03-01T22:20:20.071Z,37.13
2019-03-01T22:22:46.244Z,38.27
2019-03-01T22:25:13.199Z,37.37
2019-03-01T22:27:40.269Z,38.17
2019-03-01T22:30:09.927Z,37.63
2019-03-01T22:32:36.004Z,42.17
2019-03-01T22:35:04.011Z,41.23
2019-03-01T22:37:30.627Z,41.30
2019-03-01T22:39:56.683Z,40.57
2019-03-01T22:42:22.730Z,44.37
2019-03-01T22:44:49.283Z,42.03
2019-03-01T22:47:15.331Z,43.83
2019-03-01T22:49:41.411Z,36.57
2019-03-01T22:52:07.464Z,39.23
2019-03-01T22:54:33.519Z,38.60
2019-03-01T22:56:59.588Z,39.37
2019-03-01T22:59:25.667Z,44.13
2019-03-01T23:01:52.123Z,47.23
2019-03-01T23:04:18.185Z,43.13
2019-03-01T23:06:47.527Z,43.03
2019-03-01T23:09:13.971Z,43.27
2019-03-01T23:11:40.055Z,44.23
2019-03-01T23:14:06.108Z,47.17
2019-03-01T23:16:32.377Z,49.20
2019-03-01T23:18:58.427Z,38.67
2019-03-01T23:21:24.509Z,37.70
2019-03-01T23:23:50.568Z,42.33
2019-03-01T23:26:18.658Z,38.80
2019-03-01T23:28:44.668Z,43.10
2019-03-01T23:31:10.969Z,36.97
2019-03-01T23:33:37.027Z,50.73
2019-03-01T23:36:03.491Z,44.10
2019-03-01T23:38:29.551Z,47.67
2019-03-01T23:40:55.644Z,44.70
2019-03-01T23:43:21.819Z,45.37
2019-03-01T23:45:49.869Z,39.23
2019-03-01T23:48:15.858Z,43.00
2019-03-01T23:50:42.077Z,41.60
2019-03-01T23:53:08.231Z,39.23
2019-03-01T23:55:34.281Z,37.60
2019-03-01T23:58:06.000Z,37.07
